sensor_id;sensor_type;location;lat;lon;timestamp;pressure;altitude;pressure_sealevel;temperature;humidity
76990;BME280;65924;47.250;11.332;2023-09-18T00:00:37;94883.13;;;17.38;70.43
76990;BME280;65924;47.250;11.332;2023-09-18T00:10:38;94891.77;;;17.47;70.18
76990;BME280;65924;47.250;11.332;2023-09-18T00:20:38;94886.79;;;17.45;69.92
76990;BME280;65924;47.250;11.332;2023-09-18T00:30:46;94880.41;;;17.34;70.85
76990;BME280;65924;47.250;11.332;2023-09-18T00:40:48;94878.65;;;17.16;71.26
76990;BME280;65924;47.250;11.332;2023-09-18T00:50:48;94872.60;;;17.07;71.59
76990;BME280;65924;47.250;11.332;2023-09-18T01:00:50;94864.23;;;17.11;71.27
76990;BME280;65924;47.250;11.332;2023-09-18T01:11:10;94840.41;;;17.10;71.20
76990;BME280;65924;47.250;11.332;2023-09-18T01:21:21;94822.41;;;17.02;71.68
76990;BME280;65924;47.250;11.332;2023-09-18T01:31:24;94802.73;;;16.93;71.70
76990;BME280;65924;47.250;11.332;2023-09-18T01:41:27;94788.61;;;16.91;71.67
76990;BME280;65924;47.250;11.332;2023-09-18T01:51:28;94794.58;;;16.84;71.84
76990;BME280;65924;47.250;11.332;2023-09-18T02:01:29;94789.73;;;16.83;71.66
76990;BME280;65924;47.250;11.332;2023-09-18T02:11:30;94779.05;;;16.85;71.82
76990;BME280;65924;47.250;11.332;2023-09-18T02:21:31;94787.55;;;16.86;71.93
76990;BME280;65924;47.250;11.332;2023-09-18T02:31:35;94756.00;;;16.84;71.70
76990;BME280;65924;47.250;11.332;2023-09-18T02:41:35;94738.83;;;16.78;71.77
76990;BME280;65924;47.250;11.332;2023-09-18T02:51:36;94725.78;;;16.72;72.16
76990;BME280;65924;47.250;11.332;2023-09-18T03:01:37;94696.46;;;16.66;71.90
76990;BME280;65924;47.250;11.332;2023-09-18T03:11:38;94705.38;;;16.62;72.88
76990;BME280;65924;47.250;11.332;2023-09-18T03:21:38;94699.52;;;16.60;72.59
76990;BME280;65924;47.250;11.332;2023-09-18T03:31:39;94685.71;;;16.52;73.09
76990;BME280;65924;47.250;11.332;2023-09-18T03:41:40;94693.19;;;16.49;72.97
76990;BME280;65924;47.250;11.332;2023-09-18T03:51:42;94684.23;;;16.55;72.11
76990;BME280;65924;47.250;11.332;2023-09-18T04:01:43;94675.07;;;16.59;72.19
76990;BME280;65924;47.250;11.332;2023-09-18T04:11:46;94664.92;;;16.54;72.72
76990;BME280;65924;47.250;11.332;2023-09-18T04:21:46;94661.92;;;16.40;73.30
76990;BME280;65924;47.250;11.332;2023-09-18T04:31:47;94639.09;;;16.40;72.92
76990;BME280;65924;47.250;11.332;2023-09-18T04:41:48;94629.55;;;16.43;72.71
76990;BME280;65924;47.250;11.332;2023-09-18T04:51:49;94622.80;;;16.46;73.75
76990;BME280;65924;47.250;11.332;2023-09-18T05:01:51;94609.73;;;16.44;73.88
76990;BME280;65924;47.250;11.332;2023-09-18T05:11:53;94596.16;;;16.50;73.64
76990;BME280;65924;47.250;11.332;2023-09-18T05:21:53;94601.54;;;16.53;73.89
76990;BME280;65924;47.250;11.332;2023-09-18T05:31:54;94595.61;;;16.59;73.82
76990;BME280;65924;47.250;11.332;2023-09-18T05:41:54;94596.09;;;16.71;73.59
76990;BME280;65924;47.250;11.332;2023-09-18T05:51:55;94597.42;;;16.79;73.71
76990;BME280;65924;47.250;11.332;2023-09-18T06:01:56;94581.89;;;16.86;73.39
76990;BME280;65924;47.250;11.332;2023-09-18T06:11:57;94587.02;;;16.90;73.75
76990;BME280;65924;47.250;11.332;2023-09-18T06:21:57;94602.46;;;16.90;73.72
76990;BME280;65924;47.250;11.332;2023-09-18T06:31:58;94599.66;;;16.96;73.98
76990;BME280;65924;47.250;11.332;2023-09-18T06:42:02;94610.71;;;17.13;73.98
76990;BME280;65924;47.250;11.332;2023-09-18T06:52:03;94600.81;;;17.21;74.21
76990;BME280;65924;47.250;11.332;2023-09-18T07:02:03;94596.02;;;17.25;73.71
76990;BME280;65924;47.250;11.332;2023-09-18T07:12:04;94573.70;;;17.26;73.06
76990;BME280;65924;47.250;11.332;2023-09-18T07:22:05;94563.54;;;17.38;73.69
76990;BME280;65924;47.250;11.332;2023-09-18T07:32:06;94558.63;;;17.62;72.60
76990;BME280;65924;47.250;11.332;2023-09-18T07:42:06;94546.23;;;17.95;71.19
76990;BME280;65924;47.250;11.332;2023-09-18T07:52:07;94534.25;;;18.38;71.63
76990;BME280;65924;47.250;11.332;2023-09-18T08:02:08;94529.52;;;18.86;71.06
76990;BME280;65924;47.250;11.332;2023-09-18T08:12:10;94519.57;;;19.31;69.49
76990;BME280;65924;47.250;11.332;2023-09-18T08:22:10;94527.05;;;19.74;67.73
76990;BME280;65924;47.250;11.332;2023-09-18T08:32:15;94515.39;;;19.86;66.72
76990;BME280;65924;47.250;11.332;2023-09-18T08:42:17;94519.34;;;19.91;67.11
76990;BME280;65924;47.250;11.332;2023-09-18T08:52:20;94515.99;;;19.96;67.23
76990;BME280;65924;47.250;11.332;2023-09-18T09:02:21;94508.45;;;19.98;67.67
76990;BME280;65924;47.250;11.332;2023-09-18T09:22:49;94482.23;;;19.85;69.69
76990;BME280;65924;47.250;11.332;2023-09-18T09:32:55;94481.43;;;19.66;70.32
76990;BME280;65924;47.250;11.332;2023-09-18T09:42:57;94477.46;;;19.65;70.53
76990;BME280;65924;47.250;11.332;2023-09-18T09:53:00;94474.71;;;19.68;71.38
76990;BME280;65924;47.250;11.332;2023-09-18T10:03:04;94468.60;;;19.70;71.94
76990;BME280;65924;47.250;11.332;2023-09-18T10:13:11;94460.40;;;19.85;72.70
76990;BME280;65924;47.250;11.332;2023-09-18T10:23:21;94443.20;;;20.18;70.83
76990;BME280;65924;47.250;11.332;2023-09-18T10:33:26;94417.17;;;20.58;70.00
76990;BME280;65924;47.250;11.332;2023-09-18T10:43:27;94403.56;;;20.87;69.28
76990;BME280;65924;47.250;11.332;2023-09-18T10:53:28;94396.87;;;21.02;69.91
76990;BME280;65924;47.250;11.332;2023-09-18T11:03:33;94382.27;;;21.43;68.77
76990;BME280;65924;47.250;11.332;2023-09-18T11:13:36;94388.54;;;21.72;67.77
76990;BME280;65924;47.250;11.332;2023-09-18T11:23:38;94397.74;;;21.61;67.25
76990;BME280;65924;47.250;11.332;2023-09-18T11:33:46;94397.95;;;21.31;67.11
76990;BME280;65924;47.250;11.332;2023-09-18T11:43:47;94398.67;;;21.09;67.87
76990;BME280;65924;47.250;11.332;2023-09-18T11:53:50;94406.45;;;20.97;69.23
76990;BME280;65924;47.250;11.332;2023-09-18T12:03:53;94410.05;;;20.83;68.20
76990;BME280;65924;47.250;11.332;2023-09-18T12:13:55;94423.21;;;20.72;68.45
76990;BME280;65924;47.250;11.332;2023-09-18T12:23:56;94442.80;;;20.69;68.98
76990;BME280;65924;47.250;11.332;2023-09-18T12:33:56;94449.58;;;20.63;68.89
76990;BME280;65924;47.250;11.332;2023-09-18T12:44:00;94459.67;;;20.80;67.65
76990;BME280;65924;47.250;11.332;2023-09-18T12:54:01;94478.92;;;20.85;67.14
76990;BME280;65924;47.250;11.332;2023-09-18T13:04:11;94487.79;;;20.72;66.10
76990;BME280;65924;47.250;11.332;2023-09-18T13:14:12;94503.63;;;20.55;66.03
76990;BME280;65924;47.250;11.332;2023-09-18T13:24:31;94527.25;;;20.29;67.71
76990;BME280;65924;47.250;11.332;2023-09-18T13:34:32;94547.22;;;19.84;70.51
76990;BME280;65924;47.250;11.332;2023-09-18T13:44:32;94576.04;;;19.26;71.47
76990;BME280;65924;47.250;11.332;2023-09-18T13:54:33;94595.41;;;18.85;71.87
76990;BME280;65924;47.250;11.332;2023-09-18T14:04:34;94598.02;;;18.57;73.42
76990;BME280;65924;47.250;11.332;2023-09-18T14:14:34;94625.23;;;18.26;77.50
76990;BME280;65924;47.250;11.332;2023-09-18T14:24:35;94650.64;;;17.74;85.26
76990;BME280;65924;47.250;11.332;2023-09-18T14:34:36;94669.85;;;17.27;88.31
76990;BME280;65924;47.250;11.332;2023-09-18T14:44:37;94698.83;;;16.84;90.18
76990;BME280;65924;47.250;11.332;2023-09-18T14:54:44;94707.57;;;16.65;91.06
76990;BME280;65924;47.250;11.332;2023-09-18T15:04:45;94726.44;;;16.53;91.53
76990;BME280;65924;47.250;11.332;2023-09-18T15:14:48;94742.02;;;16.40;94.18
76990;BME280;65924;47.250;11.332;2023-09-18T15:24:50;94752.79;;;16.24;94.80
76990;BME280;65924;47.250;11.332;2023-09-18T15:34:51;94754.08;;;16.19;94.27
76990;BME280;65924;47.250;11.332;2023-09-18T15:44:52;94740.30;;;16.30;94.34
76990;BME280;65924;47.250;11.332;2023-09-18T15:54:54;94746.17;;;16.45;93.98
76990;BME280;65924;47.250;11.332;2023-09-18T16:04:55;94749.77;;;16.51;92.38
76990;BME280;65924;47.250;11.332;2023-09-18T16:14:56;94738.11;;;16.53;91.24
76990;BME280;65924;47.250;11.332;2023-09-18T16:24:57;94732.86;;;16.58;90.24
76990;BME280;65924;47.250;11.332;2023-09-18T16:35:02;94739.52;;;16.60;89.40
76990;BME280;65924;47.250;11.332;2023-09-18T16:45:07;94749.36;;;16.64;88.54
76990;BME280;65924;47.250;11.332;2023-09-18T16:55:09;94757.70;;;16.65;88.18
76990;BME280;65924;47.250;11.332;2023-09-18T17:05:10;94765.70;;;16.59;88.06
76990;BME280;65924;47.250;11.332;2023-09-18T17:15:12;94757.48;;;16.55;87.86
76990;BME280;65924;47.250;11.332;2023-09-18T17:25:15;94752.15;;;16.49;87.95
76990;BME280;65924;47.250;11.332;2023-09-18T17:35:18;94745.00;;;16.45;87.67
76990;BME280;65924;47.250;11.332;2023-09-18T17:45:20;94761.80;;;16.39;87.77
76990;BME280;65924;47.250;11.332;2023-09-18T17:55:22;94772.92;;;16.35;87.89
76990;BME280;65924;47.250;11.332;2023-09-18T18:05:23;94778.45;;;16.29;88.06
76990;BME280;65924;47.250;11.332;2023-09-18T18:15:25;94778.06;;;16.26;88.58
76990;BME280;65924;47.250;11.332;2023-09-18T18:25:26;94784.14;;;16.23;88.50
76990;BME280;65924;47.250;11.332;2023-09-18T18:35:29;94798.36;;;16.19;88.65
76990;BME280;65924;47.250;11.332;2023-09-18T18:45:31;94799.02;;;16.13;89.18
76990;BME280;65924;47.250;11.332;2023-09-18T18:55:32;94807.63;;;16.09;89.43
76990;BME280;65924;47.250;11.332;2023-09-18T19:05:34;94813.57;;;16.08;89.17
76990;BME280;65924;47.250;11.332;2023-09-18T19:15:38;94816.00;;;16.07;89.02
76990;BME280;65924;47.250;11.332;2023-09-18T19:25:50;94821.23;;;16.02;89.97
76990;BME280;65924;47.250;11.332;2023-09-18T19:35:52;94835.46;;;15.94;91.78
76990;BME280;65924;47.250;11.332;2023-09-18T19:45:55;94841.70;;;15.83;93.49
76990;BME280;65924;47.250;11.332;2023-09-18T19:55:58;94844.96;;;15.75;95.45
76990;BME280;65924;47.250;11.332;2023-09-18T20:05:59;94849.06;;;15.73;95.07
76990;BME280;65924;47.250;11.332;2023-09-18T20:16:01;94839.80;;;15.71;94.83
76990;BME280;65924;47.250;11.332;2023-09-18T20:26:02;94827.09;;;15.73;94.78
76990;BME280;65924;47.250;11.332;2023-09-18T20:36:06;94821.65;;;15.75;94.20
76990;BME280;65924;47.250;11.332;2023-09-18T20:46:07;94814.06;;;15.71;94.09
76990;BME280;65924;47.250;11.332;2023-09-18T20:56:09;94797.05;;;15.72;93.53
76990;BME280;65924;47.250;11.332;2023-09-18T21:06:09;94808.34;;;15.72;92.77
76990;BME280;65924;47.250;11.332;2023-09-18T21:16:10;94815.44;;;15.69;92.24
76990;BME280;65924;47.250;11.332;2023-09-18T21:26:11;94812.05;;;15.68;91.67
76990;BME280;65924;47.250;11.332;2023-09-18T21:36:16;94812.58;;;15.66;91.36
76990;BME280;65924;47.250;11.332;2023-09-18T21:46:21;94812.47;;;15.65;91.01
76990;BME280;65924;47.250;11.332;2023-09-18T21:56:22;94803.88;;;15.62;90.57
76990;BME280;65924;47.250;11.332;2023-09-18T22:06:22;94800.34;;;15.55;90.23
76990;BME280;65924;47.250;11.332;2023-09-18T22:16:23;94802.41;;;15.46;89.76
76990;BME280;65924;47.250;11.332;2023-09-18T22:26:24;94802.01;;;15.37;89.48
76990;BME280;65924;47.250;11.332;2023-09-18T22:36:26;94808.86;;;15.26;89.08
76990;BME280;65924;47.250;11.332;2023-09-18T22:57:08;94812.35;;;15.09;89.16
76990;BME280;65924;47.250;11.332;2023-09-18T23:07:09;94816.77;;;15.09;89.34
76990;BME280;65924;47.250;11.332;2023-09-18T23:17:10;94829.63;;;15.11;89.28
76990;BME280;65924;47.250;11.332;2023-09-18T23:27:12;94833.50;;;15.12;89.05
76990;BME280;65924;47.250;11.332;2023-09-18T23:37:12;94841.67;;;15.06;88.64
76990;BME280;65924;47.250;11.332;2023-09-18T23:47:13;94842.34;;;15.02;88.61
76990;BME280;65924;47.250;11.332;2023-09-18T23:57:14;94844.23;;;15.02;88.84
